createdAt,value
2022-11-25T08:06:27.900Z,7.15
2022-11-25T08:08:56.351Z,6.75
2022-11-25T08:11:25.766Z,9.40
2022-11-25T08:13:54.968Z,6.78
2022-11-25T08:16:23.266Z,8.43
2022-11-25T08:18:51.457Z,7.88
2022-11-25T08:21:19.293Z,9.65
2022-11-25T08:23:53.081Z,6.93
2022-11-25T08:26:23.274Z,8.68
2022-11-25T08:28:51.503Z,7.25
2022-11-25T08:31:24.140Z,9.18
2022-11-25T08:33:52.007Z,9.45
2022-11-25T08:36:20.011Z,7.80
2022-11-25T08:38:51.872Z,8.18
2022-11-25T08:41:24.980Z,7.22
2022-11-25T08:43:52.669Z,6.60
2022-11-25T08:46:24.326Z,6.68
2022-11-25T08:48:53.203Z,7.15
2022-11-25T08:51:22.584Z,9.02
2022-11-25T08:53:51.992Z,7.75
2022-11-25T08:56:25.724Z,8.57
2022-11-25T08:58:54.634Z,7.90
2022-11-25T09:01:23.581Z,7.10
2022-11-25T09:03:52.499Z,6.40
2022-11-25T09:06:20.471Z,7.40
2022-11-25T09:08:48.395Z,7.07
2022-11-25T09:11:16.468Z,9.35
2022-11-25T09:13:44.084Z,7.90
2022-11-25T09:16:11.801Z,7.25
2022-11-25T09:18:40.608Z,7.10
2022-11-25T09:21:10.039Z,7.22
2022-11-25T09:23:39.317Z,7.35
2022-11-25T09:26:07.965Z,7.97
2022-11-25T09:28:37.158Z,7.85
2022-11-25T09:31:08.751Z,10.15
2022-11-25T09:33:36.645Z,9.05
2022-11-25T09:36:04.825Z,8.90
2022-11-25T09:38:32.583Z,11.20
2022-11-25T09:41:00.035Z,11.02
2022-11-25T09:44:12.647Z,14.20
2022-11-25T09:46:49.564Z,8.25
2022-11-25T09:49:37.347Z,10.27
2022-11-25T09:52:14.433Z,7.78
2022-11-25T09:55:00.665Z,11.93
2022-11-25T09:57:33.576Z,10.23
2022-11-25T10:00:13.509Z,8.93
2022-11-25T10:02:45.802Z,8.55
2022-11-25T10:05:17.443Z,11.55
2022-11-25T10:07:49.374Z,11.32
2022-11-25T10:10:24.172Z,11.48
2022-11-25T10:12:52.286Z,9.40
2022-11-25T10:15:22.117Z,10.90
2022-11-25T10:17:51.992Z,11.35
2022-11-25T10:20:27.035Z,10.48
2022-11-25T10:23:16.455Z,9.80
2022-11-25T10:25:49.136Z,10.85
2022-11-25T10:28:24.482Z,11.75
2022-11-25T10:30:52.125Z,7.95
2022-11-25T10:33:23.804Z,9.95
2022-11-25T10:35:58.202Z,11.15
2022-11-25T10:38:31.503Z,12.57
2022-11-25T10:40:59.183Z,9.98
2022-11-25T10:43:31.786Z,9.77
2022-11-25T10:46:08.822Z,7.68
2022-11-25T10:48:41.320Z,9.80
2022-11-25T10:51:14.608Z,8.65
2022-11-25T10:53:42.134Z,9.57
2022-11-25T10:56:18.247Z,7.72
2022-11-25T10:58:46.946Z,9.40
2022-11-25T11:01:14.972Z,8.90
2022-11-25T11:03:45.531Z,7.38
2022-11-25T11:06:48.657Z,5.25
2022-11-25T11:09:31.154Z,8.38
2022-11-25T11:11:58.766Z,7.10
2022-11-25T11:14:30.578Z,7.35
2022-11-25T11:16:58.637Z,6.43
2022-11-25T11:19:27.465Z,6.20
2022-11-25T11:21:56.148Z,5.22
2022-11-25T11:24:32.889Z,5.93
2022-11-25T11:27:08.470Z,5.20
2022-11-25T11:29:36.165Z,5.18
2022-11-25T11:32:05.663Z,4.90
2022-11-25T11:34:42.719Z,4.43
2022-11-25T11:37:29.618Z,4.93
2022-11-25T11:40:02.614Z,4.40
2022-11-25T11:42:48.821Z,4.10
2022-11-25T11:45:42.750Z,3.15
2022-11-25T11:48:10.637Z,2.75
2022-11-25T11:56:26.900Z,2.75
2022-11-25T11:59:02.649Z,1.90
2022-11-25T12:01:35.206Z,1.90
2022-11-25T12:04:21.265Z,1.13
2022-11-25T12:12:15.815Z,1.50
2022-11-25T12:14:44.939Z,1.88
2022-11-25T12:28:01.781Z,1.63
2022-11-25T12:30:41.427Z,1.80
2022-11-25T12:33:15.986Z,1.27
2022-11-25T13:16:07.532Z,2.10
2022-11-25T13:18:39.248Z,2.55
2022-11-25T13:31:54.659Z,3.45
2022-11-25T13:34:31.014Z,2.03
2022-11-25T13:37:19.846Z,2.78
2022-11-25T13:55:43.609Z,2.22
2022-11-25T14:03:38.979Z,2.47
2022-11-25T14:06:15.897Z,1.75
2022-11-25T14:08:47.321Z,2.17
2022-11-25T14:13:58.669Z,2.78
2022-11-25T14:16:44.638Z,1.52
2022-11-25T14:19:51.348Z,1.60
2022-11-25T14:22:36.410Z,1.17
2022-11-25T14:25:19.877Z,1.80
2022-11-25T14:30:15.899Z,1.42
2022-11-25T14:33:12.571Z,2.00
2022-11-25T14:35:45.649Z,1.77
2022-11-25T14:38:13.444Z,1.30
2022-11-25T14:40:54.965Z,3.30
2022-11-25T14:43:26.725Z,1.58
2022-11-25T14:53:54.225Z,2.35
2022-11-25T14:56:30.759Z,2.00
2022-11-25T14:58:59.977Z,2.10
2022-11-25T15:01:31.677Z,2.25
2022-11-25T15:04:04.736Z,1.40
2022-11-25T15:06:40.614Z,2.28
2022-11-25T15:09:22.422Z,1.77
2022-11-25T15:11:52.352Z,1.50
2022-11-25T15:14:24.963Z,2.17
2022-11-25T15:16:52.818Z,1.45
2022-11-25T15:19:22.192Z,2.08
2022-11-25T15:22:21.911Z,1.23
2022-11-25T15:24:51.585Z,1.60
2022-11-25T15:35:28.374Z,1.38
2022-11-25T15:37:55.963Z,1.23
2022-11-25T15:40:43.727Z,1.45
2022-11-25T15:43:25.353Z,1.30
2022-11-25T15:45:55.362Z,1.33
2022-11-25T15:48:28.312Z,1.73
2022-11-25T15:51:18.908Z,2.33
2022-11-25T15:53:47.562Z,1.83
2022-11-25T16:06:53.679Z,1.77
2022-11-25T16:09:22.179Z,1.30
2022-11-25T16:11:49.582Z,0.98
2022-11-25T16:14:27.838Z,2.53
2022-11-25T16:17:02.981Z,1.08
2022-11-25T16:19:38.267Z,0.90
2022-11-25T16:22:06.543Z,1.75
2022-11-25T16:24:40.515Z,0.90
2022-11-25T16:27:22.982Z,1.52
2022-11-25T16:29:53.664Z,0.55
2022-11-25T16:32:23.133Z,0.90
2022-11-25T16:34:52.098Z,1.45
2022-11-25T16:37:19.711Z,1.02
2022-11-25T16:39:47.243Z,1.75
2022-11-25T16:42:20.449Z,2.28
2022-11-25T16:47:16.971Z,1.20
2022-11-25T16:49:44.595Z,1.33
2022-11-25T16:52:12.034Z,0.70
2022-11-25T16:54:40.025Z,0.88
2022-11-25T16:59:54.365Z,1.30
2022-11-25T17:02:24.111Z,1.80
2022-11-25T17:04:51.885Z,0.57
2022-11-25T17:07:35.054Z,0.93
2022-11-25T17:10:03.983Z,0.85
2022-11-25T17:12:33.419Z,1.52
2022-11-25T17:15:01.535Z,1.00
2022-11-25T17:17:29.482Z,1.25
2022-11-25T17:19:57.183Z,3.15
2022-11-25T17:22:37.522Z,0.73
2022-11-25T17:25:06.821Z,2.35
2022-11-25T17:27:34.648Z,0.98
2022-11-25T17:30:04.742Z,1.38
2022-11-25T17:32:32.448Z,1.58
2022-11-25T17:35:00.352Z,0.60
2022-11-25T17:37:29.221Z,0.88
2022-11-25T17:39:57.814Z,1.20
2022-11-25T17:42:29.994Z,1.10
2022-11-25T17:44:57.653Z,1.20
2022-11-25T17:47:25.352Z,2.13
2022-11-25T18:21:19.936Z,0.85
2022-11-25T19:05:56.598Z,0.60
2022-11-25T19:08:24.425Z,1.70
2022-11-25T19:10:52.086Z,0.68
2022-11-25T20:16:28.273Z,1.00
2022-11-25T22:57:43.403Z,1.17
2022-11-25T23:00:12.917Z,1.17
2022-11-25T23:02:42.635Z,2.60
2022-11-25T23:05:18.782Z,0.88
2022-11-25T23:07:46.452Z,0.80
2022-11-25T23:10:15.215Z,0.85
2022-11-25T23:12:42.806Z,0.65
2022-11-25T23:15:13.621Z,1.15
2022-11-25T23:17:42.291Z,0.60
2022-11-25T23:20:15.230Z,1.08
2022-11-25T23:22:42.797Z,1.00
2022-11-25T23:25:16.588Z,1.00
2022-11-25T23:27:44.180Z,1.10
2022-11-25T23:30:16.201Z,0.65
2022-11-25T23:32:44.128Z,1.08
2022-11-25T23:35:16.714Z,0.88
2022-11-25T23:37:44.433Z,0.40
2022-11-25T23:40:18.742Z,0.65
2022-11-25T23:42:46.650Z,0.52
2022-11-25T23:45:18.884Z,2.10
2022-11-25T23:47:48.014Z,1.43
2022-11-25T23:50:18.646Z,1.17
2022-11-25T23:52:46.271Z,1.83
2022-11-25T23:55:15.564Z,0.80
2022-11-25T23:57:43.933Z,1.17
